sensor_id;sensor_type;location;lat;lon;timestamp;P1;durP1;ratioP1;P2;durP2;ratioP2
16189;SDS011;41754;51.498;7.540;2023-03-24T00:01:15;3.25;;;1.98;;
16189;SDS011;41754;51.498;7.540;2023-03-24T00:03:44;3.85;;;2.03;;
16189;SDS011;41754;51.498;7.540;2023-03-24T00:06:15;3.30;;;2.00;;
16189;SDS011;41754;51.498;7.540;2023-03-24T00:08:44;3.28;;;1.92;;
16189;SDS011;41754;51.498;7.540;2023-03-24T00:11:13;4.05;;;1.90;;
16189;SDS011;41754;51.498;7.540;2023-03-24T00:13:43;2.88;;;2.00;;
16189;SDS011;41754;51.498;7.540;2023-03-24T00:16:15;4.10;;;1.98;;
16189;SDS011;41754;51.498;7.540;2023-03-24T00:18:45;4.28;;;2.00;;
16189;SDS011;41754;51.498;7.540;2023-03-24T00:21:21;2.45;;;1.55;;
16189;SDS011;41754;51.498;7.540;2023-03-24T00:23:50;2.47;;;1.67;;
16189;SDS011;41754;51.498;7.540;2023-03-24T00:26:21;3.45;;;2.03;;
16189;SDS011;41754;51.498;7.540;2023-03-24T00:28:51;3.55;;;1.80;;
16189;SDS011;41754;51.498;7.540;2023-03-24T00:31:20;2.85;;;1.75;;
16189;SDS011;41754;51.498;7.540;2023-03-24T00:33:50;2.30;;;1.60;;
16189;SDS011;41754;51.498;7.540;2023-03-24T00:36:21;4.63;;;1.98;;
16189;SDS011;41754;51.498;7.540;2023-03-24T00:38:52;2.95;;;1.85;;
16189;SDS011;41754;51.498;7.540;2023-03-24T00:41:20;3.05;;;1.77;;
16189;SDS011;41754;51.498;7.540;2023-03-24T00:43:50;2.70;;;1.58;;
16189;SDS011;41754;51.498;7.540;2023-03-24T00:46:21;2.95;;;1.70;;
16189;SDS011;41754;51.498;7.540;2023-03-24T00:48:57;1.60;;;1.33;;
16189;SDS011;41754;51.498;7.540;2023-03-24T00:51:32;2.58;;;1.60;;
16189;SDS011;41754;51.498;7.540;2023-03-24T00:54:01;2.65;;;1.65;;
16189;SDS011;41754;51.498;7.540;2023-03-24T00:56:30;2.03;;;1.70;;
16189;SDS011;41754;51.498;7.540;2023-03-24T00:59:00;2.65;;;1.50;;
16189;SDS011;41754;51.498;7.540;2023-03-24T01:01:29;3.30;;;1.42;;
16189;SDS011;41754;51.498;7.540;2023-03-24T01:04:00;2.20;;;1.95;;
16189;SDS011;41754;51.498;7.540;2023-03-24T01:06:33;2.42;;;1.33;;
16189;SDS011;41754;51.498;7.540;2023-03-24T01:09:03;2.72;;;1.80;;
16189;SDS011;41754;51.498;7.540;2023-03-24T01:11:33;2.30;;;1.83;;
16189;SDS011;41754;51.498;7.540;2023-03-24T01:14:05;2.63;;;1.92;;
16189;SDS011;41754;51.498;7.540;2023-03-24T01:16:34;2.85;;;1.60;;
16189;SDS011;41754;51.498;7.540;2023-03-24T01:19:02;1.92;;;1.42;;
16189;SDS011;41754;51.498;7.540;2023-03-24T01:21:30;2.88;;;1.67;;
16189;SDS011;41754;51.498;7.540;2023-03-24T01:24:01;4.07;;;1.85;;
16189;SDS011;41754;51.498;7.540;2023-03-24T01:26:30;3.63;;;1.60;;
16189;SDS011;41754;51.498;7.540;2023-03-24T01:28:58;2.65;;;1.83;;
16189;SDS011;41754;51.498;7.540;2023-03-24T01:31:26;2.55;;;1.60;;
16189;SDS011;41754;51.498;7.540;2023-03-24T01:33:54;3.63;;;1.92;;
16189;SDS011;41754;51.498;7.540;2023-03-24T01:36:22;2.75;;;1.35;;
16189;SDS011;41754;51.498;7.540;2023-03-24T01:38:52;5.10;;;1.65;;
16189;SDS011;41754;51.498;7.540;2023-03-24T01:41:20;2.60;;;1.63;;
16189;SDS011;41754;51.498;7.540;2023-03-24T01:43:48;1.90;;;1.67;;
16189;SDS011;41754;51.498;7.540;2023-03-24T01:46:17;5.10;;;2.10;;
16189;SDS011;41754;51.498;7.540;2023-03-24T01:48:49;3.67;;;2.05;;
16189;SDS011;41754;51.498;7.540;2023-03-24T01:51:20;2.13;;;1.80;;
16189;SDS011;41754;51.498;7.540;2023-03-24T01:53:53;3.42;;;1.70;;
16189;SDS011;41754;51.498;7.540;2023-03-24T01:56:24;1.83;;;1.70;;
16189;SDS011;41754;51.498;7.540;2023-03-24T01:58:57;2.72;;;1.90;;
16189;SDS011;41754;51.498;7.540;2023-03-24T02:01:44;2.58;;;1.98;;
16189;SDS011;41754;51.498;7.540;2023-03-24T02:04:30;2.80;;;1.88;;
16189;SDS011;41754;51.498;7.540;2023-03-24T02:07:06;3.63;;;1.90;;
16189;SDS011;41754;51.498;7.540;2023-03-24T02:09:40;4.32;;;2.00;;
16189;SDS011;41754;51.498;7.540;2023-03-24T02:12:08;2.38;;;1.98;;
16189;SDS011;41754;51.498;7.540;2023-03-24T02:14:36;2.08;;;1.88;;
16189;SDS011;41754;51.498;7.540;2023-03-24T02:17:10;2.88;;;2.05;;
16189;SDS011;41754;51.498;7.540;2023-03-24T02:23:03;1.83;;;1.70;;
16189;SDS011;41754;51.498;7.540;2023-03-24T02:25:59;2.33;;;1.77;;
16189;SDS011;41754;51.498;7.540;2023-03-24T02:28:46;3.92;;;1.98;;
16189;SDS011;41754;51.498;7.540;2023-03-24T02:40:40;2.53;;;1.88;;
16189;SDS011;41754;51.498;7.540;2023-03-24T02:43:23;3.15;;;2.30;;
16189;SDS011;41754;51.498;7.540;2023-03-24T02:46:06;2.38;;;2.00;;
16189;SDS011;41754;51.498;7.540;2023-03-24T02:48:44;2.22;;;1.95;;
16189;SDS011;41754;51.498;7.540;2023-03-24T02:51:34;2.50;;;2.30;;
16189;SDS011;41754;51.498;7.540;2023-03-24T02:54:07;3.13;;;2.10;;
16189;SDS011;41754;51.498;7.540;2023-03-24T02:56:41;3.92;;;2.05;;
16189;SDS011;41754;51.498;7.540;2023-03-24T02:59:38;2.50;;;2.30;;
16189;SDS011;41754;51.498;7.540;2023-03-24T03:02:42;2.92;;;2.10;;
16189;SDS011;41754;51.498;7.540;2023-03-24T03:05:15;2.88;;;2.20;;
16189;SDS011;41754;51.498;7.540;2023-03-24T03:07:48;2.42;;;2.08;;
16189;SDS011;41754;51.498;7.540;2023-03-24T03:10:18;2.80;;;2.33;;
16189;SDS011;41754;51.498;7.540;2023-03-24T03:12:51;2.65;;;2.45;;
16189;SDS011;41754;51.498;7.540;2023-03-24T03:15:23;3.40;;;2.40;;
16189;SDS011;41754;51.498;7.540;2023-03-24T03:17:57;3.83;;;2.58;;
16189;SDS011;41754;51.498;7.540;2023-03-24T03:20:33;4.18;;;2.60;;
16189;SDS011;41754;51.498;7.540;2023-03-24T03:23:09;3.47;;;2.33;;
16189;SDS011;41754;51.498;7.540;2023-03-24T03:25:40;4.25;;;2.60;;
16189;SDS011;41754;51.498;7.540;2023-03-24T03:28:17;3.70;;;2.67;;
16189;SDS011;41754;51.498;7.540;2023-03-24T03:30:50;3.75;;;2.50;;
16189;SDS011;41754;51.498;7.540;2023-03-24T03:33:21;3.97;;;2.70;;
16189;SDS011;41754;51.498;7.540;2023-03-24T03:35:54;2.30;;;2.10;;
16189;SDS011;41754;51.498;7.540;2023-03-24T03:38:28;2.42;;;2.22;;
16189;SDS011;41754;51.498;7.540;2023-03-24T03:41:04;4.30;;;2.47;;
16189;SDS011;41754;51.498;7.540;2023-03-24T03:43:36;2.72;;;2.05;;
16189;SDS011;41754;51.498;7.540;2023-03-24T03:46:05;2.20;;;1.98;;
16189;SDS011;41754;51.498;7.540;2023-03-24T03:48:36;2.78;;;2.03;;
16189;SDS011;41754;51.498;7.540;2023-03-24T03:51:06;2.83;;;2.20;;
16189;SDS011;41754;51.498;7.540;2023-03-24T03:53:46;2.15;;;1.95;;
16189;SDS011;41754;51.498;7.540;2023-03-24T03:56:17;2.45;;;1.98;;
16189;SDS011;41754;51.498;7.540;2023-03-24T03:59:09;3.50;;;2.13;;
16189;SDS011;41754;51.498;7.540;2023-03-24T04:01:49;3.15;;;2.08;;
16189;SDS011;41754;51.498;7.540;2023-03-24T04:04:47;3.83;;;2.22;;
16189;SDS011;41754;51.498;7.540;2023-03-24T04:07:38;2.88;;;2.25;;
16189;SDS011;41754;51.498;7.540;2023-03-24T04:10:47;3.10;;;2.10;;
16189;SDS011;41754;51.498;7.540;2023-03-24T04:13:35;2.88;;;2.40;;
16189;SDS011;41754;51.498;7.540;2023-03-24T04:16:18;3.42;;;2.60;;
16189;SDS011;41754;51.498;7.540;2023-03-24T04:19:06;4.38;;;2.70;;
16189;SDS011;41754;51.498;7.540;2023-03-24T04:21:46;2.78;;;2.53;;
16189;SDS011;41754;51.498;7.540;2023-03-24T04:24:29;3.53;;;2.83;;
16189;SDS011;41754;51.498;7.540;2023-03-24T04:27:10;3.15;;;2.72;;
16189;SDS011;41754;51.498;7.540;2023-03-24T04:29:44;3.53;;;2.60;;
16189;SDS011;41754;51.498;7.540;2023-03-24T04:32:25;3.78;;;3.20;;
16189;SDS011;41754;51.498;7.540;2023-03-24T04:34:58;3.30;;;3.00;;
16189;SDS011;41754;51.498;7.540;2023-03-24T04:37:51;4.03;;;3.35;;
16189;SDS011;41754;51.498;7.540;2023-03-24T04:40:24;3.50;;;3.13;;
16189;SDS011;41754;51.498;7.540;2023-03-24T04:42:52;7.20;;;3.63;;
16189;SDS011;41754;51.498;7.540;2023-03-24T04:45:27;4.53;;;3.47;;
16189;SDS011;41754;51.498;7.540;2023-03-24T04:48:18;4.40;;;3.60;;
16189;SDS011;41754;51.498;7.540;2023-03-24T04:51:09;3.58;;;3.28;;
16189;SDS011;41754;51.498;7.540;2023-03-24T04:53:50;5.53;;;3.70;;
16189;SDS011;41754;51.498;7.540;2023-03-24T04:56:30;8.60;;;4.60;;
16189;SDS011;41754;51.498;7.540;2023-03-24T04:59:24;6.38;;;4.82;;
16189;SDS011;41754;51.498;7.540;2023-03-24T05:01:53;6.60;;;4.68;;
16189;SDS011;41754;51.498;7.540;2023-03-24T05:04:36;3.33;;;1.92;;
16189;SDS011;41754;51.498;7.540;2023-03-24T05:07:16;3.83;;;2.05;;
16189;SDS011;41754;51.498;7.540;2023-03-24T05:09:47;3.33;;;2.75;;
16189;SDS011;41754;51.498;7.540;2023-03-24T05:12:14;2.53;;;2.30;;
16189;SDS011;41754;51.498;7.540;2023-03-24T05:15:01;2.55;;;2.35;;
16189;SDS011;41754;51.498;7.540;2023-03-24T05:17:30;4.28;;;2.83;;
16189;SDS011;41754;51.498;7.540;2023-03-24T05:20:00;3.47;;;2.83;;
16189;SDS011;41754;51.498;7.540;2023-03-24T05:22:27;4.00;;;3.08;;
16189;SDS011;41754;51.498;7.540;2023-03-24T05:24:55;3.20;;;2.90;;
16189;SDS011;41754;51.498;7.540;2023-03-24T05:27:23;4.05;;;2.50;;
16189;SDS011;41754;51.498;7.540;2023-03-24T05:29:51;2.50;;;2.30;;
16189;SDS011;41754;51.498;7.540;2023-03-24T05:32:23;2.63;;;2.42;;
16189;SDS011;41754;51.498;7.540;2023-03-24T05:34:53;2.60;;;2.30;;
16189;SDS011;41754;51.498;7.540;2023-03-24T05:37:34;1.77;;;1.67;;
16189;SDS011;41754;51.498;7.540;2023-03-24T05:40:02;2.80;;;2.60;;
16189;SDS011;41754;51.498;7.540;2023-03-24T05:42:43;2.35;;;2.13;;
16189;SDS011;41754;51.498;7.540;2023-03-24T05:45:12;2.72;;;2.38;;
16189;SDS011;41754;51.498;7.540;2023-03-24T05:47:40;2.45;;;2.25;;
16189;SDS011;41754;51.498;7.540;2023-03-24T05:50:09;2.53;;;2.33;;
16189;SDS011;41754;51.498;7.540;2023-03-24T05:52:38;3.15;;;2.80;;
16189;SDS011;41754;51.498;7.540;2023-03-24T05:55:28;3.85;;;2.45;;
16189;SDS011;41754;51.498;7.540;2023-03-24T05:58:05;3.33;;;2.00;;
16189;SDS011;41754;51.498;7.540;2023-03-24T06:00:39;2.78;;;2.30;;
16189;SDS011;41754;51.498;7.540;2023-03-24T06:03:13;2.88;;;2.67;;
16189;SDS011;41754;51.498;7.540;2023-03-24T06:05:48;3.80;;;2.38;;
16189;SDS011;41754;51.498;7.540;2023-03-24T06:08:17;3.20;;;2.30;;
16189;SDS011;41754;51.498;7.540;2023-03-24T06:10:45;2.85;;;2.30;;
16189;SDS011;41754;51.498;7.540;2023-03-24T06:13:14;3.25;;;1.92;;
16189;SDS011;41754;51.498;7.540;2023-03-24T06:15:44;4.47;;;1.80;;
16189;SDS011;41754;51.498;7.540;2023-03-24T06:18:29;2.42;;;1.50;;
16189;SDS011;41754;51.498;7.540;2023-03-24T06:21:04;6.05;;;1.90;;
16189;SDS011;41754;51.498;7.540;2023-03-24T06:23:35;4.78;;;1.85;;
16189;SDS011;41754;51.498;7.540;2023-03-24T06:26:07;4.93;;;1.85;;
16189;SDS011;41754;51.498;7.540;2023-03-24T06:28:53;3.08;;;2.03;;
16189;SDS011;41754;51.498;7.540;2023-03-24T06:31:24;2.83;;;1.80;;
16189;SDS011;41754;51.498;7.540;2023-03-24T06:33:55;3.78;;;2.13;;
16189;SDS011;41754;51.498;7.540;2023-03-24T06:36:22;5.27;;;2.30;;
16189;SDS011;41754;51.498;7.540;2023-03-24T06:38:52;4.80;;;2.30;;
16189;SDS011;41754;51.498;7.540;2023-03-24T06:41:20;3.28;;;2.00;;
16189;SDS011;41754;51.498;7.540;2023-03-24T06:43:55;4.50;;;2.13;;
16189;SDS011;41754;51.498;7.540;2023-03-24T06:46:24;5.13;;;2.40;;
16189;SDS011;41754;51.498;7.540;2023-03-24T06:48:52;3.47;;;2.17;;
16189;SDS011;41754;51.498;7.540;2023-03-24T06:51:20;3.55;;;2.55;;
16189;SDS011;41754;51.498;7.540;2023-03-24T06:53:48;6.57;;;2.50;;
16189;SDS011;41754;51.498;7.540;2023-03-24T06:56:17;4.63;;;2.40;;
16189;SDS011;41754;51.498;7.540;2023-03-24T06:58:52;6.00;;;2.70;;
16189;SDS011;41754;51.498;7.540;2023-03-24T07:01:31;4.73;;;2.80;;
16189;SDS011;41754;51.498;7.540;2023-03-24T07:04:12;5.07;;;2.60;;
16189;SDS011;41754;51.498;7.540;2023-03-24T07:06:50;4.77;;;1.93;;
16189;SDS011;41754;51.498;7.540;2023-03-24T07:09:40;4.63;;;2.03;;
16189;SDS011;41754;51.498;7.540;2023-03-24T07:12:10;5.97;;;2.35;;
16189;SDS011;41754;51.498;7.540;2023-03-24T07:14:40;3.23;;;2.00;;
16189;SDS011;41754;51.498;7.540;2023-03-24T07:17:08;3.45;;;2.00;;
16189;SDS011;41754;51.498;7.540;2023-03-24T07:19:55;4.77;;;2.60;;
16189;SDS011;41754;51.498;7.540;2023-03-24T07:22:43;5.22;;;2.53;;
16189;SDS011;41754;51.498;7.540;2023-03-24T07:25:46;4.95;;;3.03;;
16189;SDS011;41754;51.498;7.540;2023-03-24T07:28:38;4.28;;;2.80;;
16189;SDS011;41754;51.498;7.540;2023-03-24T07:31:06;5.28;;;2.60;;
16189;SDS011;41754;51.498;7.540;2023-03-24T07:33:36;5.90;;;3.08;;
16189;SDS011;41754;51.498;7.540;2023-03-24T07:36:04;7.60;;;2.92;;
16189;SDS011;41754;51.498;7.540;2023-03-24T07:38:35;7.03;;;2.20;;
16189;SDS011;41754;51.498;7.540;2023-03-24T07:41:07;6.47;;;2.08;;
16189;SDS011;41754;51.498;7.540;2023-03-24T07:43:40;6.28;;;1.90;;
16189;SDS011;41754;51.498;7.540;2023-03-24T07:46:34;6.85;;;2.38;;
16189;SDS011;41754;51.498;7.540;2023-03-24T07:49:02;7.47;;;2.25;;
16189;SDS011;41754;51.498;7.540;2023-03-24T07:51:49;10.63;;;2.17;;
16189;SDS011;41754;51.498;7.540;2023-03-24T07:54:37;9.75;;;2.25;;
16189;SDS011;41754;51.498;7.540;2023-03-24T07:57:05;4.20;;;1.70;;
16189;SDS011;41754;51.498;7.540;2023-03-24T07:59:37;5.15;;;1.98;;
16189;SDS011;41754;51.498;7.540;2023-03-24T08:02:15;5.20;;;1.65;;
16189;SDS011;41754;51.498;7.540;2023-03-24T08:05:14;10.85;;;1.98;;
16189;SDS011;41754;51.498;7.540;2023-03-24T08:07:53;9.15;;;1.80;;
16189;SDS011;41754;51.498;7.540;2023-03-24T08:10:24;7.07;;;2.10;;
16189;SDS011;41754;51.498;7.540;2023-03-24T08:12:53;6.47;;;1.80;;
16189;SDS011;41754;51.498;7.540;2023-03-24T08:15:24;7.97;;;2.25;;
16189;SDS011;41754;51.498;7.540;2023-03-24T08:17:53;8.07;;;1.88;;
16189;SDS011;41754;51.498;7.540;2023-03-24T08:20:22;7.80;;;1.98;;
16189;SDS011;41754;51.498;7.540;2023-03-24T08:22:52;7.45;;;2.03;;
16189;SDS011;41754;51.498;7.540;2023-03-24T08:25:20;8.88;;;2.10;;
16189;SDS011;41754;51.498;7.540;2023-03-24T08:27:50;5.70;;;1.77;;
16189;SDS011;41754;51.498;7.540;2023-03-24T08:30:18;7.18;;;1.55;;
16189;SDS011;41754;51.498;7.540;2023-03-24T08:32:50;6.75;;;1.80;;
16189;SDS011;41754;51.498;7.540;2023-03-24T08:35:20;6.10;;;1.98;;
16189;SDS011;41754;51.498;7.540;2023-03-24T08:37:49;5.82;;;1.70;;
16189;SDS011;41754;51.498;7.540;2023-03-24T08:40:19;6.53;;;1.80;;
16189;SDS011;41754;51.498;7.540;2023-03-24T08:42:49;6.70;;;1.90;;
16189;SDS011;41754;51.498;7.540;2023-03-24T08:45:20;9.55;;;2.00;;
16189;SDS011;41754;51.498;7.540;2023-03-24T08:47:50;5.60;;;1.58;;
16189;SDS011;41754;51.498;7.540;2023-03-24T08:50:19;5.68;;;1.73;;
16189;SDS011;41754;51.498;7.540;2023-03-24T08:52:52;7.13;;;2.00;;
16189;SDS011;41754;51.498;7.540;2023-03-24T08:55:22;5.28;;;2.03;;
16189;SDS011;41754;51.498;7.540;2023-03-24T08:57:50;5.60;;;1.70;;
16189;SDS011;41754;51.498;7.540;2023-03-24T09:00:19;5.05;;;1.58;;
16189;SDS011;41754;51.498;7.540;2023-03-24T09:02:48;6.05;;;1.90;;
16189;SDS011;41754;51.498;7.540;2023-03-24T09:05:19;6.43;;;1.75;;
16189;SDS011;41754;51.498;7.540;2023-03-24T09:08:06;7.32;;;2.20;;
16189;SDS011;41754;51.498;7.540;2023-03-24T09:10:36;5.10;;;1.70;;
16189;SDS011;41754;51.498;7.540;2023-03-24T09:13:04;6.03;;;2.03;;
16189;SDS011;41754;51.498;7.540;2023-03-24T09:15:33;5.20;;;1.80;;
16189;SDS011;41754;51.498;7.540;2023-03-24T09:18:01;7.28;;;2.00;;
16189;SDS011;41754;51.498;7.540;2023-03-24T09:20:30;5.53;;;1.60;;
16189;SDS011;41754;51.498;7.540;2023-03-24T09:22:58;6.38;;;2.08;;
16189;SDS011;41754;51.498;7.540;2023-03-24T09:25:26;7.05;;;2.25;;
16189;SDS011;41754;51.498;7.540;2023-03-24T09:27:54;4.95;;;1.75;;
16189;SDS011;41754;51.498;7.540;2023-03-24T09:30:22;5.75;;;1.90;;
16189;SDS011;41754;51.498;7.540;2023-03-24T09:32:50;10.18;;;2.13;;
16189;SDS011;41754;51.498;7.540;2023-03-24T09:35:18;7.15;;;2.20;;
16189;SDS011;41754;51.498;7.540;2023-03-24T09:37:47;6.15;;;2.00;;
16189;SDS011;41754;51.498;7.540;2023-03-24T09:40:17;7.00;;;2.10;;
16189;SDS011;41754;51.498;7.540;2023-03-24T09:42:49;8.23;;;2.40;;
16189;SDS011;41754;51.498;7.540;2023-03-24T09:45:21;8.38;;;2.55;;
16189;SDS011;41754;51.498;7.540;2023-03-24T09:47:53;5.28;;;1.92;;
16189;SDS011;41754;51.498;7.540;2023-03-24T09:50:27;8.77;;;2.10;;
16189;SDS011;41754;51.498;7.540;2023-03-24T09:53:03;6.55;;;1.90;;
16189;SDS011;41754;51.498;7.540;2023-03-24T09:55:36;5.07;;;2.38;;
16189;SDS011;41754;51.498;7.540;2023-03-24T09:58:09;7.03;;;2.38;;
16189;SDS011;41754;51.498;7.540;2023-03-24T10:00:39;6.82;;;2.60;;
16189;SDS011;41754;51.498;7.540;2023-03-24T10:03:12;7.00;;;2.78;;
16189;SDS011;41754;51.498;7.540;2023-03-24T10:05:47;6.82;;;2.47;;
16189;SDS011;41754;51.498;7.540;2023-03-24T10:08:23;8.75;;;3.28;;
16189;SDS011;41754;51.498;7.540;2023-03-24T10:10:58;7.60;;;2.53;;
16189;SDS011;41754;51.498;7.540;2023-03-24T10:13:34;7.82;;;2.10;;
16189;SDS011;41754;51.498;7.540;2023-03-24T10:16:11;9.75;;;3.13;;
16189;SDS011;41754;51.498;7.540;2023-03-24T10:18:46;6.47;;;2.60;;
16189;SDS011;41754;51.498;7.540;2023-03-24T10:21:24;4.97;;;2.05;;
16189;SDS011;41754;51.498;7.540;2023-03-24T10:23:56;5.65;;;2.50;;
16189;SDS011;41754;51.498;7.540;2023-03-24T10:26:34;6.82;;;2.33;;
16189;SDS011;41754;51.498;7.540;2023-03-24T10:29:15;4.68;;;1.83;;
16189;SDS011;41754;51.498;7.540;2023-03-24T10:31:49;9.68;;;2.38;;
16189;SDS011;41754;51.498;7.540;2023-03-24T10:34:20;6.35;;;2.17;;
16189;SDS011;41754;51.498;7.540;2023-03-24T10:36:51;5.97;;;2.17;;
16189;SDS011;41754;51.498;7.540;2023-03-24T10:39:22;8.13;;;2.22;;
16189;SDS011;41754;51.498;7.540;2023-03-24T10:42:03;6.38;;;1.83;;
16189;SDS011;41754;51.498;7.540;2023-03-24T10:44:33;6.97;;;1.83;;
16189;SDS011;41754;51.498;7.540;2023-03-24T10:47:02;6.72;;;2.20;;
16189;SDS011;41754;51.498;7.540;2023-03-24T10:49:33;7.95;;;2.08;;
16189;SDS011;41754;51.498;7.540;2023-03-24T10:52:02;7.47;;;2.40;;
16189;SDS011;41754;51.498;7.540;2023-03-24T10:54:37;6.60;;;2.25;;
16189;SDS011;41754;51.498;7.540;2023-03-24T10:57:21;8.55;;;2.05;;
16189;SDS011;41754;51.498;7.540;2023-03-24T10:59:51;8.93;;;2.10;;
16189;SDS011;41754;51.498;7.540;2023-03-24T11:02:22;9.70;;;2.10;;
16189;SDS011;41754;51.498;7.540;2023-03-24T11:04:53;5.60;;;2.10;;
16189;SDS011;41754;51.498;7.540;2023-03-24T11:07:27;6.53;;;2.40;;
16189;SDS011;41754;51.498;7.540;2023-03-24T11:10:01;7.50;;;2.80;;
16189;SDS011;41754;51.498;7.540;2023-03-24T11:12:32;7.68;;;2.20;;
16189;SDS011;41754;51.498;7.540;2023-03-24T11:15:12;9.07;;;2.10;;
16189;SDS011;41754;51.498;7.540;2023-03-24T11:17:52;6.85;;;2.10;;
16189;SDS011;41754;51.498;7.540;2023-03-24T11:20:24;4.57;;;1.80;;
16189;SDS011;41754;51.498;7.540;2023-03-24T11:22:56;6.55;;;1.95;;
16189;SDS011;41754;51.498;7.540;2023-03-24T11:25:29;6.47;;;1.90;;
16189;SDS011;41754;51.498;7.540;2023-03-24T11:28:13;7.85;;;1.90;;
16189;SDS011;41754;51.498;7.540;2023-03-24T11:30:44;7.63;;;2.33;;
16189;SDS011;41754;51.498;7.540;2023-03-24T11:33:20;5.55;;;1.50;;
16189;SDS011;41754;51.498;7.540;2023-03-24T11:36:02;4.47;;;2.03;;
16189;SDS011;41754;51.498;7.540;2023-03-24T11:38:36;9.40;;;2.00;;
16189;SDS011;41754;51.498;7.540;2023-03-24T11:41:09;5.90;;;1.80;;
16189;SDS011;41754;51.498;7.540;2023-03-24T11:43:47;7.95;;;2.20;;
16189;SDS011;41754;51.498;7.540;2023-03-24T11:46:16;7.75;;;1.85;;
16189;SDS011;41754;51.498;7.540;2023-03-24T11:48:49;6.18;;;1.55;;
16189;SDS011;41754;51.498;7.540;2023-03-24T11:51:22;8.10;;;1.60;;
16189;SDS011;41754;51.498;7.540;2023-03-24T11:53:54;6.20;;;2.33;;
16189;SDS011;41754;51.498;7.540;2023-03-24T11:56:26;4.50;;;1.80;;
16189;SDS011;41754;51.498;7.540;2023-03-24T11:59:01;4.30;;;2.05;;
16189;SDS011;41754;51.498;7.540;2023-03-24T12:01:35;5.53;;;1.90;;
16189;SDS011;41754;51.498;7.540;2023-03-24T12:04:07;5.07;;;1.70;;
16189;SDS011;41754;51.498;7.540;2023-03-24T12:06:54;5.60;;;1.90;;
16189;SDS011;41754;51.498;7.540;2023-03-24T12:09:33;7.53;;;2.42;;
16189;SDS011;41754;51.498;7.540;2023-03-24T12:12:16;5.60;;;2.03;;
16189;SDS011;41754;51.498;7.540;2023-03-24T12:15:02;6.90;;;2.15;;
16189;SDS011;41754;51.498;7.540;2023-03-24T12:17:55;6.18;;;2.03;;
16189;SDS011;41754;51.498;7.540;2023-03-24T12:20:35;5.15;;;2.05;;
16189;SDS011;41754;51.498;7.540;2023-03-24T12:23:11;7.53;;;2.40;;
16189;SDS011;41754;51.498;7.540;2023-03-24T12:25:58;4.88;;;1.63;;
16189;SDS011;41754;51.498;7.540;2023-03-24T12:28:49;2.15;;;1.42;;
16189;SDS011;41754;51.498;7.540;2023-03-24T12:31:26;4.05;;;1.70;;
16189;SDS011;41754;51.498;7.540;2023-03-24T12:34:06;4.88;;;1.40;;
16189;SDS011;41754;51.498;7.540;2023-03-24T12:36:51;3.30;;;1.50;;
16189;SDS011;41754;51.498;7.540;2023-03-24T12:39:25;5.72;;;2.10;;
16189;SDS011;41754;51.498;7.540;2023-03-24T12:42:02;3.75;;;1.52;;
16189;SDS011;41754;51.498;7.540;2023-03-24T12:47:52;5.30;;;1.98;;
16189;SDS011;41754;51.498;7.540;2023-03-24T12:50:44;5.43;;;2.10;;
16189;SDS011;41754;51.498;7.540;2023-03-24T12:53:28;5.53;;;1.73;;
16189;SDS011;41754;51.498;7.540;2023-03-24T12:56:03;4.20;;;1.75;;
16189;SDS011;41754;51.498;7.540;2023-03-24T12:58:38;4.20;;;1.40;;
16189;SDS011;41754;51.498;7.540;2023-03-24T13:01:12;5.80;;;1.73;;
16189;SDS011;41754;51.498;7.540;2023-03-24T13:03:47;3.50;;;1.55;;
16189;SDS011;41754;51.498;7.540;2023-03-24T13:06:19;5.30;;;2.10;;
16189;SDS011;41754;51.498;7.540;2023-03-24T13:08:57;5.93;;;1.88;;
16189;SDS011;41754;51.498;7.540;2023-03-24T13:11:35;4.90;;;1.98;;
16189;SDS011;41754;51.498;7.540;2023-03-24T13:14:10;5.43;;;1.77;;
16189;SDS011;41754;51.498;7.540;2023-03-24T13:16:44;6.40;;;1.95;;
16189;SDS011;41754;51.498;7.540;2023-03-24T13:19:15;5.05;;;1.83;;
16189;SDS011;41754;51.498;7.540;2023-03-24T13:21:47;6.03;;;2.08;;
16189;SDS011;41754;51.498;7.540;2023-03-24T13:24:17;5.10;;;2.00;;
16189;SDS011;41754;51.498;7.540;2023-03-24T13:26:48;4.93;;;1.85;;
16189;SDS011;41754;51.498;7.540;2023-03-24T13:29:25;5.22;;;1.90;;
16189;SDS011;41754;51.498;7.540;2023-03-24T13:32:18;5.50;;;1.50;;
16189;SDS011;41754;51.498;7.540;2023-03-24T13:34:56;6.60;;;1.77;;
16189;SDS011;41754;51.498;7.540;2023-03-24T13:37:32;3.85;;;1.50;;
16189;SDS011;41754;51.498;7.540;2023-03-24T13:40:04;6.43;;;2.15;;
16189;SDS011;41754;51.498;7.540;2023-03-24T13:42:41;4.75;;;1.73;;
16189;SDS011;41754;51.498;7.540;2023-03-24T13:45:20;5.53;;;1.40;;
16189;SDS011;41754;51.498;7.540;2023-03-24T13:48:13;5.57;;;1.95;;
16189;SDS011;41754;51.498;7.540;2023-03-24T13:50:49;4.10;;;1.63;;
16189;SDS011;41754;51.498;7.540;2023-03-24T13:53:29;5.60;;;1.55;;
16189;SDS011;41754;51.498;7.540;2023-03-24T13:56:03;4.75;;;1.83;;
16189;SDS011;41754;51.498;7.540;2023-03-24T13:58:49;4.97;;;1.80;;
16189;SDS011;41754;51.498;7.540;2023-03-24T14:01:33;5.07;;;1.65;;
16189;SDS011;41754;51.498;7.540;2023-03-24T14:04:19;8.35;;;2.10;;
16189;SDS011;41754;51.498;7.540;2023-03-24T14:06:51;8.02;;;2.30;;
16189;SDS011;41754;51.498;7.540;2023-03-24T14:09:21;8.48;;;2.35;;
16189;SDS011;41754;51.498;7.540;2023-03-24T14:17:45;4.95;;;1.73;;
16189;SDS011;41754;51.498;7.540;2023-03-24T14:20:31;8.48;;;1.77;;
16189;SDS011;41754;51.498;7.540;2023-03-24T14:23:01;4.82;;;1.58;;
16189;SDS011;41754;51.498;7.540;2023-03-24T14:25:30;5.05;;;1.98;;
16189;SDS011;41754;51.498;7.540;2023-03-24T14:28:06;4.40;;;1.98;;
16189;SDS011;41754;51.498;7.540;2023-03-24T14:30:53;5.65;;;2.08;;
16189;SDS011;41754;51.498;7.540;2023-03-24T14:33:27;5.72;;;1.38;;
16189;SDS011;41754;51.498;7.540;2023-03-24T14:36:00;4.25;;;1.45;;
16189;SDS011;41754;51.498;7.540;2023-03-24T14:38:33;5.28;;;1.80;;
16189;SDS011;41754;51.498;7.540;2023-03-24T14:41:07;3.72;;;1.38;;
16189;SDS011;41754;51.498;7.540;2023-03-24T14:43:53;6.15;;;1.60;;
16189;SDS011;41754;51.498;7.540;2023-03-24T14:46:33;4.28;;;1.60;;
16189;SDS011;41754;51.498;7.540;2023-03-24T14:49:04;6.50;;;1.90;;
16189;SDS011;41754;51.498;7.540;2023-03-24T14:51:41;4.22;;;1.48;;
16189;SDS011;41754;51.498;7.540;2023-03-24T14:54:15;6.18;;;1.67;;
16189;SDS011;41754;51.498;7.540;2023-03-24T14:56:46;5.70;;;1.90;;
16189;SDS011;41754;51.498;7.540;2023-03-24T14:59:21;4.13;;;1.10;;
16189;SDS011;41754;51.498;7.540;2023-03-24T15:01:58;2.95;;;1.00;;
16189;SDS011;41754;51.498;7.540;2023-03-24T15:04:30;2.65;;;0.70;;
16189;SDS011;41754;51.498;7.540;2023-03-24T15:07:00;2.95;;;0.85;;
16189;SDS011;41754;51.498;7.540;2023-03-24T15:09:29;4.28;;;0.88;;
16189;SDS011;41754;51.498;7.540;2023-03-24T15:11:58;2.30;;;0.80;;
16189;SDS011;41754;51.498;7.540;2023-03-24T15:14:26;2.53;;;0.90;;
16189;SDS011;41754;51.498;7.540;2023-03-24T15:16:56;1.65;;;0.70;;
16189;SDS011;41754;51.498;7.540;2023-03-24T15:19:28;2.15;;;0.77;;
16189;SDS011;41754;51.498;7.540;2023-03-24T15:22:00;5.30;;;2.20;;
16189;SDS011;41754;51.498;7.540;2023-03-24T15:24:31;4.47;;;1.40;;
16189;SDS011;41754;51.498;7.540;2023-03-24T15:27:16;4.40;;;1.38;;
16189;SDS011;41754;51.498;7.540;2023-03-24T15:29:57;3.05;;;1.55;;
16189;SDS011;41754;51.498;7.540;2023-03-24T15:32:26;3.78;;;1.50;;
16189;SDS011;41754;51.498;7.540;2023-03-24T15:35:04;4.43;;;1.70;;
16189;SDS011;41754;51.498;7.540;2023-03-24T15:37:35;3.17;;;1.42;;
16189;SDS011;41754;51.498;7.540;2023-03-24T15:43:04;3.85;;;1.80;;
16189;SDS011;41754;51.498;7.540;2023-03-24T15:45:35;4.07;;;1.40;;
16189;SDS011;41754;51.498;7.540;2023-03-24T15:48:11;3.30;;;1.05;;
16189;SDS011;41754;51.498;7.540;2023-03-24T15:50:53;3.55;;;1.50;;
16189;SDS011;41754;51.498;7.540;2023-03-24T15:53:25;3.25;;;1.23;;
16189;SDS011;41754;51.498;7.540;2023-03-24T15:56:01;4.32;;;1.50;;
16189;SDS011;41754;51.498;7.540;2023-03-24T15:58:46;5.03;;;1.58;;